createdAt,value
2023-04-16T00:00:58.587Z,63.17
2023-04-16T00:01:58.729Z,60.09
2023-04-16T00:02:58.892Z,61.23
2023-04-16T00:03:59.092Z,62.19
2023-04-16T00:04:58.876Z,56.21
2023-04-16T00:05:58.875Z,56.03
2023-04-16T00:06:58.946Z,58.63
2023-04-16T00:07:58.992Z,57.06
2023-04-16T00:08:59.052Z,55.61
2023-04-16T00:09:59.071Z,56.29
2023-04-16T00:10:59.156Z,55.44
2023-04-16T00:11:59.182Z,55.64
2023-04-16T00:12:59.249Z,54.67
2023-04-16T00:13:59.286Z,52.00
2023-04-16T00:14:59.353Z,53.94
2023-04-16T00:15:59.449Z,54.44
2023-04-16T00:16:59.570Z,52.47
2023-04-16T00:17:59.600Z,55.23
2023-04-16T00:18:59.568Z,52.53
2023-04-16T00:19:59.581Z,52.10
2023-04-16T00:20:59.673Z,55.54
2023-04-16T00:21:59.669Z,56.35
2023-04-16T00:22:59.816Z,56.14
2023-04-16T00:23:59.804Z,54.15
2023-04-16T00:24:59.832Z,55.89
2023-04-16T00:26:00.018Z,54.84
2023-04-16T00:26:59.961Z,52.83
2023-04-16T00:27:59.953Z,56.90
2023-04-16T00:29:00.011Z,54.21
2023-04-16T00:29:59.987Z,54.26
2023-04-16T00:31:00.003Z,54.58
2023-04-16T00:32:00.014Z,51.89
2023-04-16T00:33:00.067Z,51.36
2023-04-16T00:33:59.971Z,53.10
2023-04-16T00:34:59.945Z,53.15
2023-04-16T00:35:59.957Z,53.61
2023-04-16T00:36:59.970Z,53.16
2023-04-16T00:37:59.947Z,52.85
2023-04-16T00:38:59.937Z,54.01
2023-04-16T00:39:59.937Z,50.08
2023-04-16T00:40:59.951Z,53.42
2023-04-16T00:42:00.071Z,50.09
2023-04-16T00:42:59.996Z,50.17
2023-04-16T00:43:59.981Z,50.41
2023-04-16T00:44:59.989Z,50.96
2023-04-16T00:46:00.017Z,53.12
2023-04-16T00:47:00.025Z,51.96
2023-04-16T00:48:00.536Z,54.65
2023-04-16T00:48:59.999Z,54.90
2023-04-16T00:49:59.963Z,53.60
2023-04-16T00:50:59.963Z,52.03
2023-04-16T00:51:59.962Z,54.60
2023-04-16T00:53:00.008Z,49.78
2023-04-16T00:54:00.040Z,50.04
2023-04-16T00:55:00.058Z,50.28
2023-04-16T00:56:00.075Z,50.31
2023-04-16T00:57:00.039Z,51.52
2023-04-16T00:58:00.050Z,51.51
2023-04-16T00:59:00.035Z,55.36
2023-04-16T01:00:00.036Z,52.23
2023-04-16T01:01:00.067Z,56.20
2023-04-16T01:02:00.169Z,53.41
2023-04-16T01:03:00.158Z,53.90
2023-04-16T01:04:00.147Z,51.80
2023-04-16T01:05:00.040Z,49.15
2023-04-16T01:06:00.010Z,49.33
2023-04-16T01:07:00.064Z,50.22
2023-04-16T01:08:00.041Z,50.85
2023-04-16T01:09:00.015Z,50.82
2023-04-16T01:10:00.027Z,52.15
2023-04-16T01:11:00.020Z,47.68
2023-04-16T01:12:00.068Z,52.25
2023-04-16T01:13:00.003Z,52.45
2023-04-16T01:14:00.025Z,54.51
2023-04-16T01:15:00.038Z,54.90
2023-04-16T01:16:00.092Z,53.97
2023-04-16T01:17:00.094Z,57.18
2023-04-16T01:18:00.172Z,57.25
2023-04-16T01:19:00.039Z,57.67
2023-04-16T01:20:00.098Z,58.12
2023-04-16T01:21:00.049Z,57.65
2023-04-16T01:22:00.539Z,62.23
2023-04-16T01:23:00.062Z,64.05
2023-04-16T01:24:00.057Z,64.48
2023-04-16T01:25:00.042Z,61.52
2023-04-16T01:26:00.024Z,57.45
2023-04-16T01:27:00.030Z,59.93
2023-04-16T01:28:00.020Z,61.36
2023-04-16T01:29:00.068Z,59.27
2023-04-16T01:30:00.120Z,48.86
2023-04-16T01:31:00.175Z,44.39
2023-04-16T01:32:00.279Z,48.91
2023-04-16T01:33:00.497Z,42.39
2023-04-16T01:34:00.311Z,41.47
2023-04-16T01:35:00.437Z,44.99
2023-04-16T01:36:00.425Z,43.30
2023-04-16T01:37:00.474Z,40.00
2023-04-16T01:38:00.512Z,43.87
2023-04-16T01:39:00.610Z,43.62
2023-04-16T01:40:00.660Z,38.88
2023-04-16T01:41:00.669Z,41.62
2023-04-16T01:42:00.752Z,45.55
2023-04-16T01:43:00.728Z,45.73
2023-04-16T01:44:00.749Z,46.12
2023-04-16T01:45:00.738Z,46.19
2023-04-16T01:46:00.738Z,48.08
2023-04-16T01:47:00.782Z,51.57
2023-04-16T01:48:00.765Z,48.86
2023-04-16T01:49:00.722Z,46.06
2023-04-16T01:50:00.741Z,45.29
2023-04-16T01:51:00.740Z,51.97
2023-04-16T01:52:00.806Z,54.92
2023-04-16T01:53:00.752Z,60.05
2023-04-16T01:54:00.768Z,59.37
2023-04-16T01:55:00.810Z,60.51
2023-04-16T01:56:00.860Z,60.15
2023-04-16T01:57:00.933Z,59.01
2023-04-16T01:58:00.939Z,54.62
2023-04-16T01:59:00.988Z,56.10
2023-04-16T02:00:00.999Z,56.26
2023-04-16T02:01:01.060Z,56.73
2023-04-16T02:02:01.146Z,57.14
2023-04-16T02:03:01.311Z,57.39
2023-04-16T02:04:01.133Z,58.39
2023-04-16T02:05:01.021Z,57.92
2023-04-16T02:06:01.000Z,55.97
2023-04-16T02:07:01.020Z,55.35
2023-04-16T02:08:01.028Z,56.32
2023-04-16T02:09:01.050Z,54.42
2023-04-16T02:10:01.041Z,58.05
2023-04-16T02:11:01.021Z,56.74
2023-04-16T02:12:01.033Z,57.58
2023-04-16T02:13:01.144Z,59.41
2023-04-16T02:14:01.150Z,57.90
2023-04-16T02:15:01.210Z,60.10
2023-04-16T02:16:01.305Z,60.86
2023-04-16T02:17:01.280Z,54.94
2023-04-16T02:18:01.409Z,55.32
2023-04-16T02:19:01.332Z,55.37
2023-04-16T02:20:01.411Z,52.08
2023-04-16T02:21:01.362Z,47.61
2023-04-16T02:22:01.344Z,45.54
2023-04-16T02:23:01.350Z,49.95
2023-04-16T02:24:01.436Z,50.53
2023-04-16T02:25:01.338Z,54.92
2023-04-16T02:26:01.376Z,48.59
2023-04-16T02:27:01.318Z,49.96
2023-04-16T02:28:01.430Z,49.04
2023-04-16T02:29:01.317Z,49.18
2023-04-16T02:30:01.378Z,50.08
2023-04-16T02:31:01.334Z,51.57
2023-04-16T02:32:01.413Z,49.48
2023-04-16T02:33:01.420Z,50.48
2023-04-16T02:34:01.412Z,52.63
2023-04-16T02:35:01.322Z,55.67
2023-04-16T02:36:01.361Z,59.46
2023-04-16T02:37:01.326Z,62.17
2023-04-16T02:38:01.341Z,62.57
2023-04-16T02:39:01.334Z,57.53
2023-04-16T02:40:01.378Z,57.66
2023-04-16T02:41:01.336Z,56.32
2023-04-16T02:42:01.342Z,52.36
2023-04-16T02:43:01.338Z,52.48
2023-04-16T02:44:01.337Z,49.58
2023-04-16T02:45:01.391Z,51.75
2023-04-16T02:46:01.391Z,51.87
2023-04-16T02:47:01.439Z,48.87
2023-04-16T02:48:01.363Z,50.16
2023-04-16T02:49:01.331Z,51.94
2023-04-16T02:50:01.349Z,52.25
2023-04-16T02:51:01.311Z,50.00
2023-04-16T02:52:01.323Z,51.01
2023-04-16T02:53:01.358Z,50.24
2023-04-16T02:54:01.394Z,52.16
2023-04-16T02:55:01.325Z,52.27
2023-04-16T02:56:01.340Z,52.41
2023-04-16T02:57:01.334Z,48.88
2023-04-16T02:58:01.419Z,50.97
2023-04-16T02:59:01.330Z,52.17
2023-04-16T03:00:01.434Z,48.54
2023-04-16T03:01:01.358Z,52.33
2023-04-16T03:02:01.379Z,53.16
2023-04-16T03:03:01.360Z,53.94
2023-04-16T03:04:01.371Z,55.35
2023-04-16T03:05:01.331Z,50.09
2023-04-16T03:06:01.320Z,50.04
2023-04-16T03:07:01.316Z,48.87
2023-04-16T03:08:01.438Z,51.83
2023-04-16T03:09:01.313Z,47.20
2023-04-16T03:10:01.316Z,49.31
2023-04-16T03:11:01.407Z,51.72
2023-04-16T03:12:01.354Z,51.19
2023-04-16T03:13:01.390Z,50.92
2023-04-16T03:14:01.468Z,47.27
2023-04-16T03:15:01.500Z,49.74
2023-04-16T03:16:01.668Z,44.91
2023-04-16T03:17:01.617Z,44.05
2023-04-16T03:18:01.697Z,44.07
2023-04-16T03:19:01.607Z,38.48
2023-04-16T03:20:01.670Z,41.03
2023-04-16T03:21:01.638Z,38.47
2023-04-16T03:22:01.592Z,40.33
2023-04-16T03:23:01.604Z,40.07
2023-04-16T03:24:01.624Z,44.67
2023-04-16T03:25:01.612Z,44.15
2023-04-16T03:26:01.595Z,43.06
2023-04-16T03:27:01.589Z,42.11
2023-04-16T03:28:01.595Z,42.24
2023-04-16T03:29:01.658Z,42.30
2023-04-16T03:30:01.558Z,42.38
2023-04-16T03:31:01.563Z,43.64
2023-04-16T03:32:01.544Z,43.60
2023-04-16T03:33:01.636Z,42.14
2023-04-16T03:34:01.535Z,39.39
2023-04-16T03:35:01.539Z,38.27
2023-04-16T03:36:01.588Z,33.61
2023-04-16T03:37:01.546Z,40.58
2023-04-16T03:38:01.526Z,41.45
2023-04-16T03:39:01.572Z,37.75
2023-04-16T03:40:01.627Z,42.42
2023-04-16T03:41:01.713Z,40.72
2023-04-16T03:42:01.810Z,42.01
2023-04-16T03:43:01.753Z,42.18
2023-04-16T03:44:01.770Z,42.61
2023-04-16T03:45:01.744Z,42.69
2023-04-16T03:46:01.857Z,42.81
2023-04-16T03:47:01.734Z,43.02
2023-04-16T03:48:01.732Z,42.69
2023-04-16T03:49:01.761Z,36.60
2023-04-16T03:50:01.742Z,36.17
2023-04-16T03:51:01.767Z,39.84
2023-04-16T03:52:01.784Z,41.69
2023-04-16T03:53:01.800Z,36.28
2023-04-16T03:54:01.897Z,35.33
2023-04-16T03:55:01.901Z,35.40
2023-04-16T03:56:01.975Z,31.38
2023-04-16T03:57:02.008Z,29.35
2023-04-16T03:58:02.088Z,27.21
2023-04-16T03:59:02.135Z,31.28
2023-04-16T04:00:02.175Z,32.94
2023-04-16T04:01:02.240Z,29.89
2023-04-16T04:02:02.330Z,33.42
2023-04-16T04:03:02.687Z,34.46
2023-04-16T04:04:02.492Z,34.56
2023-04-16T04:05:02.436Z,34.73
2023-04-16T04:06:02.332Z,35.30
2023-04-16T04:07:02.322Z,36.38
2023-04-16T04:08:02.349Z,37.38
2023-04-16T04:09:02.375Z,36.14
2023-04-16T04:10:02.342Z,33.37
2023-04-16T04:11:02.323Z,34.25
2023-04-16T04:12:02.348Z,34.14
2023-04-16T04:13:02.319Z,31.66
2023-04-16T04:14:02.332Z,33.08
2023-04-16T04:15:02.386Z,31.97
2023-04-16T04:16:02.471Z,31.72
2023-04-16T04:17:02.465Z,31.70
2023-04-16T04:18:02.607Z,32.12
2023-04-16T04:19:02.591Z,32.23
2023-04-16T04:20:02.526Z,32.38
2023-04-16T04:21:02.513Z,26.82
2023-04-16T04:22:02.524Z,28.98
2023-04-16T04:23:02.506Z,22.02
2023-04-16T04:24:02.854Z,25.00
2023-04-16T04:25:02.500Z,25.00
2023-04-16T04:26:02.575Z,24.54
2023-04-16T04:27:02.498Z,26.64
2023-04-16T04:28:02.506Z,25.00
2023-04-16T04:29:02.489Z,24.16
2023-04-16T04:30:02.532Z,23.21
2023-04-16T04:31:02.594Z,24.60
2023-04-16T04:32:02.729Z,27.20
2023-04-16T04:33:02.683Z,27.09
2023-04-16T04:34:02.741Z,25.00
2023-04-16T04:35:02.732Z,25.55
2023-04-16T04:36:02.759Z,38.66
2023-04-16T04:37:02.790Z,45.80
2023-04-16T04:38:02.871Z,43.05
2023-04-16T04:39:02.869Z,40.15
2023-04-16T04:40:02.900Z,43.74
2023-04-16T04:41:02.943Z,47.26
2023-04-16T04:42:02.983Z,49.44
2023-04-16T04:43:03.006Z,50.63
2023-04-16T04:44:03.077Z,57.56
2023-04-16T04:45:03.089Z,58.64
2023-04-16T04:46:03.195Z,58.77
2023-04-16T04:47:03.183Z,63.71
2023-04-16T04:48:03.248Z,67.86
2023-04-16T04:49:03.289Z,67.46
2023-04-16T04:50:03.340Z,77.81
2023-04-16T04:51:04.849Z,79.00
2023-04-16T04:52:03.429Z,82.39
2023-04-16T04:53:03.488Z,84.20
2023-04-16T04:54:03.565Z,88.82
2023-04-16T04:55:03.605Z,89.21
2023-04-16T04:56:12.455Z,92.36
2023-04-16T04:57:04.665Z,92.55
2023-04-16T04:58:03.726Z,93.82
2023-04-16T04:59:03.682Z,94.99
2023-04-16T05:00:03.627Z,100.59
2023-04-16T05:01:03.759Z,108.65
2023-04-16T05:02:03.721Z,93.17
2023-04-16T05:03:03.833Z,96.03
2023-04-16T05:04:03.647Z,102.14
2023-04-16T05:05:03.766Z,110.11
2023-04-16T05:06:03.653Z,116.73
2023-04-16T05:07:03.601Z,110.47
2023-04-16T05:08:03.604Z,94.64
2023-04-16T05:09:03.644Z,70.85
2023-04-16T05:10:03.617Z,46.24
2023-04-16T05:11:03.783Z,41.06
2023-04-16T05:12:03.705Z,24.48
2023-04-16T05:13:03.859Z,25.00
2023-04-16T05:14:03.846Z,27.91
2023-04-16T05:15:03.820Z,30.12
2023-04-16T05:16:03.973Z,25.74
2023-04-16T05:17:04.130Z,25.00
2023-04-16T05:18:03.989Z,25.14
2023-04-16T05:19:03.974Z,24.52
2023-04-16T05:20:04.000Z,24.52
2023-04-16T05:21:04.042Z,25.16
2023-04-16T05:22:04.076Z,26.19
2023-04-16T05:23:04.134Z,25.00
2023-04-16T05:24:04.181Z,25.00
2023-04-16T05:25:04.214Z,25.01
2023-04-16T05:26:04.238Z,25.00
2023-04-16T05:27:04.259Z,25.51
2023-04-16T05:28:04.285Z,28.14
2023-04-16T05:29:04.345Z,25.08
2023-04-16T05:30:04.322Z,26.58
2023-04-16T05:31:04.363Z,25.16
2023-04-16T05:32:04.349Z,25.00
2023-04-16T05:33:04.361Z,29.42
2023-04-16T05:34:04.395Z,24.57
2023-04-16T05:35:04.427Z,27.65
2023-04-16T05:36:04.438Z,27.76
2023-04-16T05:37:04.485Z,25.00
2023-04-16T05:38:04.561Z,25.50
2023-04-16T05:39:04.583Z,28.46
2023-04-16T05:40:04.568Z,28.46
2023-04-16T05:41:04.599Z,29.46
2023-04-16T05:42:04.620Z,27.27
2023-04-16T05:43:04.633Z,34.69
2023-04-16T05:44:05.159Z,27.40
2023-04-16T05:45:04.650Z,25.04
2023-04-16T05:46:04.682Z,44.58
2023-04-16T05:47:04.654Z,39.58
2023-04-16T05:48:04.703Z,57.38
2023-04-16T05:49:04.777Z,68.65
2023-04-16T05:50:04.688Z,67.98
2023-04-16T05:51:04.693Z,81.19
2023-04-16T05:52:04.723Z,81.78
2023-04-16T05:53:04.694Z,86.22
2023-04-16T05:54:04.696Z,86.86
2023-04-16T05:55:04.857Z,95.87
2023-04-16T05:56:04.709Z,108.53
2023-04-16T05:57:04.708Z,115.40
2023-04-16T05:58:04.704Z,122.10
2023-04-16T05:59:04.742Z,126.69
2023-04-16T06:00:04.868Z,131.38
2023-04-16T06:01:04.715Z,142.89
2023-04-16T06:02:04.736Z,143.89
2023-04-16T06:03:04.883Z,156.63
2023-04-16T06:04:04.899Z,164.04
2023-04-16T06:05:04.779Z,171.76
2023-04-16T06:06:04.930Z,179.69
2023-04-16T06:07:04.754Z,185.15
2023-04-16T06:08:04.773Z,191.42
2023-04-16T06:09:04.825Z,198.28
2023-04-16T06:10:04.987Z,202.00
2023-04-16T06:11:04.826Z,210.91
2023-04-16T06:12:04.839Z,213.47
2023-04-16T06:13:04.938Z,220.68
2023-04-16T06:14:04.837Z,228.44
2023-04-16T06:15:04.923Z,234.34
2023-04-16T06:16:04.908Z,238.09
2023-04-16T06:17:04.919Z,243.27
2023-04-16T06:18:04.996Z,246.39
2023-04-16T06:19:04.966Z,248.98
2023-04-16T06:20:04.982Z,247.72
2023-04-16T06:21:05.024Z,250.00
2023-04-16T06:22:05.019Z,247.68
2023-04-16T06:23:05.050Z,247.76
2023-04-16T06:24:05.070Z,250.61
2023-04-16T06:25:05.148Z,248.04
2023-04-16T06:26:05.177Z,249.14
2023-04-16T06:27:05.147Z,246.73
2023-04-16T06:28:05.164Z,248.34
2023-04-16T06:29:05.150Z,246.57
2023-04-16T06:30:06.866Z,249.94
2023-04-16T06:31:05.248Z,246.81
2023-04-16T06:32:05.174Z,249.29
2023-04-16T06:33:05.217Z,249.39
2023-04-16T06:34:05.315Z,248.96
2023-04-16T06:35:05.329Z,246.51
2023-04-16T06:36:05.409Z,250.00
2023-04-16T06:37:05.617Z,248.90
2023-04-16T06:38:05.507Z,248.31
2023-04-16T06:39:05.649Z,249.67
2023-04-16T06:40:05.656Z,250.00
2023-04-16T06:41:05.721Z,249.46
2023-04-16T06:42:05.766Z,250.00
2023-04-16T06:43:05.831Z,249.61
2023-04-16T06:44:05.867Z,250.00
2023-04-16T06:45:05.921Z,247.81
2023-04-16T06:46:05.927Z,246.39
2023-04-16T06:47:06.155Z,249.18
2023-04-16T06:48:06.019Z,249.25
2023-04-16T06:49:06.041Z,247.16
2023-04-16T06:50:06.099Z,248.71
2023-04-16T06:51:06.182Z,249.22
2023-04-16T06:52:06.246Z,248.28
2023-04-16T06:53:06.299Z,248.79
2023-04-16T06:54:06.350Z,249.66
2023-04-16T06:55:06.397Z,248.24
2023-04-16T06:56:06.444Z,250.00
2023-04-16T06:57:06.496Z,250.00
2023-04-16T06:58:06.545Z,247.37
2023-04-16T06:59:06.611Z,249.41
2023-04-16T07:00:06.665Z,248.57
2023-04-16T07:01:06.740Z,247.24
2023-04-16T07:02:06.847Z,248.07
2023-04-16T07:03:06.873Z,246.51
2023-04-16T07:04:06.985Z,247.45
2023-04-16T07:05:06.876Z,247.63
2023-04-16T07:06:06.896Z,245.65
2023-04-16T07:07:06.970Z,248.72
2023-04-16T07:08:06.985Z,250.00
2023-04-16T07:09:07.134Z,248.31
2023-04-16T07:10:07.124Z,245.53
2023-04-16T07:11:07.175Z,245.96
2023-04-16T07:12:07.256Z,248.14
2023-04-16T07:13:07.310Z,247.50
2023-04-16T07:14:07.382Z,250.00
2023-04-16T07:15:07.462Z,247.92
2023-04-16T07:16:07.514Z,249.62
2023-04-16T07:17:07.537Z,249.68
2023-04-16T07:18:07.699Z,247.37
2023-04-16T07:19:07.777Z,245.72
2023-04-16T07:20:07.710Z,247.37
2023-04-16T07:21:07.744Z,243.72
2023-04-16T07:22:07.815Z,231.74
2023-04-16T07:23:07.885Z,222.13
2023-04-16T07:24:07.922Z,206.04
2023-04-16T07:25:07.987Z,200.08
2023-04-16T07:26:08.026Z,189.60
2023-04-16T07:27:08.060Z,178.60
2023-04-16T07:28:08.132Z,176.96
2023-04-16T07:29:08.462Z,174.07
2023-04-16T07:30:08.685Z,161.72
2023-04-16T07:31:08.277Z,158.28
2023-04-16T07:32:08.386Z,150.47
2023-04-16T07:33:08.399Z,150.49
2023-04-16T07:34:08.371Z,140.51
2023-04-16T07:35:08.379Z,136.09
2023-04-16T07:36:08.382Z,126.66
2023-04-16T07:37:08.375Z,122.88
2023-04-16T07:38:08.378Z,116.45
2023-04-16T07:39:08.860Z,106.91
2023-04-16T07:40:08.377Z,97.64
2023-04-16T07:41:08.394Z,99.40
2023-04-16T07:42:08.399Z,102.88
2023-04-16T07:43:08.393Z,103.76
2023-04-16T07:44:08.423Z,104.23
2023-04-16T07:45:08.413Z,104.42
2023-04-16T07:46:08.538Z,109.00
2023-04-16T07:47:08.487Z,115.90
2023-04-16T07:48:08.542Z,117.38
2023-04-16T07:49:08.873Z,118.85
2023-04-16T07:50:08.660Z,127.06
2023-04-16T07:51:08.752Z,126.89
2023-04-16T07:52:08.776Z,130.12
2023-04-16T07:53:08.848Z,131.89
2023-04-16T07:54:08.927Z,135.85
2023-04-16T07:55:08.993Z,139.62
2023-04-16T07:56:09.069Z,142.39
2023-04-16T07:57:09.138Z,146.05
2023-04-16T07:58:09.189Z,151.89
2023-04-16T07:59:21.833Z,150.91
2023-04-16T08:00:10.267Z,151.12
2023-04-16T08:01:09.245Z,152.26
2023-04-16T08:02:09.294Z,151.39
2023-04-16T08:03:09.465Z,153.28
2023-04-16T08:04:09.457Z,157.29
2023-04-16T08:05:09.268Z,163.28
2023-04-16T08:06:09.228Z,174.74
2023-04-16T08:07:09.209Z,177.17
2023-04-16T08:08:09.206Z,178.83
2023-04-16T08:09:09.500Z,181.83
2023-04-16T08:10:09.266Z,187.02
2023-04-16T08:11:09.214Z,192.19
2023-04-16T08:12:09.271Z,192.34
2023-04-16T08:13:09.339Z,186.34
2023-04-16T08:14:09.343Z,176.76
2023-04-16T08:15:09.329Z,164.22
2023-04-16T08:16:09.427Z,156.19
2023-04-16T08:17:09.321Z,148.81
2023-04-16T08:18:09.466Z,145.71
2023-04-16T08:19:09.673Z,140.22
2023-04-16T08:20:09.591Z,136.13
2023-04-16T08:21:09.335Z,130.98
2023-04-16T08:22:09.335Z,123.82
2023-04-16T08:23:09.342Z,118.34
2023-04-16T08:24:09.352Z,109.61
2023-04-16T08:25:09.344Z,100.55
2023-04-16T08:26:09.351Z,95.42
2023-04-16T08:27:18.452Z,91.09
2023-04-16T08:28:09.352Z,87.14
2023-04-16T08:29:09.509Z,83.50
2023-04-16T08:30:09.385Z,76.08
2023-04-16T08:31:09.437Z,73.06
2023-04-16T08:32:09.388Z,69.44
2023-04-16T08:33:09.419Z,59.50
2023-04-16T08:34:09.393Z,58.10
2023-04-16T08:35:09.393Z,53.56
2023-04-16T08:36:09.422Z,46.80
2023-04-16T08:37:09.401Z,44.20
2023-04-16T08:38:09.391Z,40.64
2023-04-16T08:39:09.788Z,44.79
2023-04-16T08:40:09.517Z,42.93
2023-04-16T08:41:09.564Z,41.69
2023-04-16T08:42:09.637Z,41.99
2023-04-16T08:43:09.699Z,45.97
2023-04-16T08:44:09.755Z,54.77
2023-04-16T08:45:09.807Z,56.59
2023-04-16T08:46:09.913Z,61.31
2023-04-16T08:47:09.955Z,62.10
2023-04-16T08:48:10.014Z,67.65
2023-04-16T08:49:10.264Z,70.58
2023-04-16T08:50:10.138Z,76.48
2023-04-16T08:51:10.204Z,82.28
2023-04-16T08:52:10.261Z,87.43
2023-04-16T08:53:10.318Z,94.42
2023-04-16T08:54:10.325Z,94.60
2023-04-16T08:55:10.299Z,96.01
2023-04-16T08:56:10.315Z,101.07
2023-04-16T08:57:10.313Z,108.16
2023-04-16T08:58:10.286Z,120.78
2023-04-16T08:59:10.562Z,127.64
2023-04-16T09:00:10.288Z,131.97
2023-04-16T09:01:10.297Z,139.65
2023-04-16T09:02:10.353Z,141.57
2023-04-16T09:03:10.345Z,150.12
2023-04-16T09:04:10.351Z,154.96
2023-04-16T09:05:10.302Z,160.37
2023-04-16T09:06:10.364Z,165.28
2023-04-16T09:07:10.364Z,168.13
2023-04-16T09:08:10.405Z,173.73
2023-04-16T09:09:10.634Z,179.25
2023-04-16T09:10:10.474Z,182.97
2023-04-16T09:11:10.588Z,189.22
2023-04-16T09:12:10.500Z,190.29
2023-04-16T09:13:10.514Z,195.44
2023-04-16T09:14:10.537Z,199.22
2023-04-16T09:15:10.538Z,199.39
2023-04-16T09:16:10.559Z,200.68
2023-04-16T09:17:10.494Z,203.57
2023-04-16T09:18:10.491Z,208.59
2023-04-16T09:19:10.550Z,218.96
2023-04-16T09:20:10.450Z,221.45
2023-04-16T09:21:10.426Z,226.60
2023-04-16T09:22:10.466Z,230.06
2023-04-16T09:23:10.397Z,235.38
2023-04-16T09:24:10.421Z,236.52
2023-04-16T09:25:10.383Z,242.24
2023-04-16T09:26:10.361Z,243.23
2023-04-16T09:27:10.364Z,242.48
2023-04-16T09:28:10.346Z,243.50
2023-04-16T09:29:10.555Z,240.89
2023-04-16T09:30:10.323Z,240.73
2023-04-16T09:31:10.303Z,241.16
2023-04-16T09:32:10.343Z,245.78
2023-04-16T09:33:10.274Z,248.32
2023-04-16T09:34:10.274Z,248.72
2023-04-16T09:35:10.241Z,248.71
2023-04-16T09:36:10.238Z,246.15
2023-04-16T09:37:10.214Z,245.14
2023-04-16T09:38:10.189Z,245.91
2023-04-16T09:39:10.320Z,242.63
2023-04-16T09:40:10.153Z,244.33
2023-04-16T09:41:10.143Z,243.87
2023-04-16T09:42:10.144Z,249.66
2023-04-16T09:43:10.124Z,248.44
2023-04-16T09:44:10.120Z,247.27
2023-04-16T09:45:10.120Z,242.60
2023-04-16T09:46:10.209Z,241.47
2023-04-16T09:47:10.127Z,245.75
2023-04-16T09:48:10.089Z,247.56
2023-04-16T09:49:10.387Z,245.23
2023-04-16T09:50:12.499Z,246.89
2023-04-16T09:51:10.099Z,248.93
2023-04-16T09:52:10.143Z,249.85
2023-04-16T09:53:10.066Z,247.44
2023-04-16T09:54:10.073Z,242.27
2023-04-16T09:55:10.066Z,244.51
2023-04-16T09:56:10.038Z,249.79
2023-04-16T09:57:10.046Z,249.17
2023-04-16T09:58:10.032Z,250.00
2023-04-16T09:59:10.192Z,246.89
2023-04-16T10:00:10.011Z,247.74
2023-04-16T10:01:10.041Z,244.54
2023-04-16T10:02:15.025Z,249.81
2023-04-16T10:03:11.036Z,248.11
2023-04-16T10:04:10.323Z,246.69
2023-04-16T10:05:09.950Z,250.24
2023-04-16T10:06:09.934Z,248.66
2023-04-16T10:07:09.928Z,249.21
2023-04-16T10:08:09.911Z,249.86
2023-04-16T10:09:10.180Z,250.31
2023-04-16T10:10:09.891Z,253.08
2023-04-16T10:11:09.865Z,258.94
2023-04-16T10:12:09.885Z,265.18
2023-04-16T10:13:09.848Z,249.55
2023-04-16T10:14:09.823Z,249.73
2023-04-16T10:15:09.807Z,249.52
2023-04-16T10:16:09.796Z,249.28
2023-04-16T10:17:10.012Z,249.89
2023-04-16T10:18:09.836Z,250.00
2023-04-16T10:19:10.004Z,248.28
2023-04-16T10:20:09.730Z,248.34
2023-04-16T10:21:09.726Z,249.64
2023-04-16T10:22:09.790Z,249.73
2023-04-16T10:23:09.703Z,248.96
2023-04-16T10:24:09.705Z,250.00
2023-04-16T10:25:09.673Z,249.56
2023-04-16T10:26:09.645Z,245.76
2023-04-16T10:27:09.690Z,249.80
2023-04-16T10:28:09.639Z,248.20
2023-04-16T10:29:09.993Z,246.81
2023-04-16T10:30:09.609Z,248.57
2023-04-16T10:31:09.739Z,247.89
2023-04-16T10:32:09.605Z,245.95
2023-04-16T10:33:09.612Z,246.52
2023-04-16T10:34:09.555Z,247.80
2023-04-16T10:35:09.524Z,247.14
2023-04-16T10:36:09.541Z,246.23
2023-04-16T10:37:09.493Z,240.59
2023-04-16T10:38:09.457Z,243.99
2023-04-16T10:39:09.572Z,242.43
2023-04-16T10:40:09.425Z,248.87
2023-04-16T10:41:09.430Z,248.93
2023-04-16T10:42:09.428Z,246.64
2023-04-16T10:43:09.398Z,242.72
2023-04-16T10:44:09.379Z,246.24
2023-04-16T10:45:09.395Z,243.49
2023-04-16T10:46:09.358Z,241.03
2023-04-16T10:47:09.336Z,241.02
2023-04-16T10:48:09.301Z,238.97
2023-04-16T10:49:09.566Z,230.37
2023-04-16T10:50:09.269Z,222.73
2023-04-16T10:51:09.271Z,229.67
2023-04-16T10:52:09.274Z,224.63
2023-04-16T10:53:09.237Z,226.83
2023-04-16T10:54:09.247Z,227.30
2023-04-16T10:55:09.208Z,223.75
2023-04-16T10:56:09.217Z,224.79
2023-04-16T10:57:09.296Z,227.83
2023-04-16T10:58:09.145Z,225.10
2023-04-16T10:59:09.378Z,225.73
2023-04-16T11:00:09.119Z,223.49
2023-04-16T11:01:09.108Z,226.42
2023-04-16T11:02:09.189Z,225.14
2023-04-16T11:03:09.210Z,227.68
2023-04-16T11:04:09.138Z,222.02
2023-04-16T11:05:09.055Z,222.54
2023-04-16T11:06:09.029Z,221.28
2023-04-16T11:07:09.011Z,213.05
2023-04-16T11:08:09.060Z,214.97
2023-04-16T11:09:09.042Z,215.19
2023-04-16T11:10:09.026Z,211.12
2023-04-16T11:11:08.960Z,209.27
2023-04-16T11:12:08.933Z,209.44
2023-04-16T11:13:08.930Z,209.64
2023-04-16T11:14:08.899Z,208.92
2023-04-16T11:15:08.885Z,202.44
2023-04-16T11:16:08.892Z,212.67
2023-04-16T11:17:08.829Z,208.67
2023-04-16T11:18:08.909Z,214.25
2023-04-16T11:19:09.013Z,217.31
2023-04-16T11:20:19.703Z,214.91
2023-04-16T11:21:09.758Z,215.18
2023-04-16T11:22:08.804Z,215.67
2023-04-16T11:23:08.762Z,218.70
2023-04-16T11:24:08.710Z,220.09
2023-04-16T11:25:08.692Z,215.34
2023-04-16T11:26:08.678Z,216.77
2023-04-16T11:27:08.648Z,219.05
2023-04-16T11:28:08.638Z,225.21
2023-04-16T11:29:08.964Z,231.57
2023-04-16T11:30:08.574Z,235.35
2023-04-16T11:31:08.722Z,235.22
2023-04-16T11:32:08.542Z,235.28
2023-04-16T11:33:08.620Z,235.77
2023-04-16T11:34:08.510Z,236.16
2023-04-16T11:35:08.463Z,240.53
2023-04-16T11:36:08.444Z,241.02
2023-04-16T11:37:08.427Z,242.71
2023-04-16T11:38:08.427Z,243.04
2023-04-16T11:39:08.483Z,240.73
2023-04-16T11:40:08.358Z,240.33
2023-04-16T11:41:08.339Z,245.51
2023-04-16T11:42:08.334Z,246.96
2023-04-16T11:43:08.304Z,244.22
2023-04-16T11:44:08.280Z,249.41
2023-04-16T11:45:08.272Z,245.75
2023-04-16T11:46:23.973Z,246.12
2023-04-16T11:47:09.274Z,246.13
2023-04-16T11:48:09.913Z,246.29
2023-04-16T11:49:08.344Z,248.11
2023-04-16T11:50:08.164Z,246.32
2023-04-16T11:51:08.145Z,247.27
2023-04-16T11:52:08.110Z,248.55
2023-04-16T11:53:08.522Z,249.81
2023-04-16T11:54:09.113Z,253.84
2023-04-16T11:55:08.065Z,248.14
2023-04-16T11:56:08.040Z,246.44
2023-04-16T11:57:08.025Z,249.42
2023-04-16T11:58:08.019Z,246.25
2023-04-16T11:59:08.270Z,246.34
2023-04-16T12:00:09.982Z,244.96
2023-04-16T12:01:08.093Z,249.79
2023-04-16T12:02:08.228Z,244.10
2023-04-16T12:03:08.237Z,247.11
2023-04-16T12:04:08.330Z,247.02
2023-04-16T12:05:08.079Z,248.79
2023-04-16T12:06:08.051Z,246.27
2023-04-16T12:07:08.007Z,244.78
2023-04-16T12:08:08.020Z,249.06
2023-04-16T12:09:08.008Z,246.97
2023-04-16T12:10:07.940Z,248.33
2023-04-16T12:11:07.905Z,246.25
2023-04-16T12:12:07.911Z,246.92
2023-04-16T12:13:07.908Z,244.33
2023-04-16T12:14:07.862Z,246.35
2023-04-16T12:15:07.835Z,245.58
2023-04-16T12:16:07.841Z,246.15
2023-04-16T12:17:07.975Z,246.35
2023-04-16T12:18:07.974Z,246.41
2023-04-16T12:19:07.878Z,247.07
2023-04-16T12:20:07.766Z,248.45
2023-04-16T12:21:07.821Z,249.18
2023-04-16T12:22:07.868Z,248.19
2023-04-16T12:23:07.729Z,245.57
2023-04-16T12:24:07.705Z,245.76
2023-04-16T12:25:07.683Z,246.10
2023-04-16T12:26:07.691Z,248.58
2023-04-16T12:27:07.645Z,244.29
2023-04-16T12:28:07.673Z,244.17
2023-04-16T12:29:07.762Z,245.34
2023-04-16T12:30:07.592Z,248.70
2023-04-16T12:31:07.610Z,246.45
2023-04-16T12:32:07.571Z,247.21
2023-04-16T12:33:07.601Z,245.79
2023-04-16T12:34:07.555Z,244.97
2023-04-16T12:35:07.553Z,248.29
2023-04-16T12:36:07.533Z,245.09
2023-04-16T12:37:07.541Z,247.68
2023-04-16T12:38:07.565Z,249.46
2023-04-16T12:39:07.666Z,247.78
2023-04-16T12:40:07.496Z,243.99
2023-04-16T12:41:07.504Z,247.30